Bellingham, WA

8:40 PM PDT on August 30, 2014 (GMT -0700)
Whidbey Island Naval Air Station | Change Station
CLOSE
Current Station
Airport
Location: Whidbey Island,
Elevation: 46 ft
Nearby Weather Stations

Elev 46 ft 48.35 °N, 122.66 °W | Updated 44 minutes ago

Scattered Clouds
Scattered Clouds
60 °F
Feels Like 60 °F
N
5
Wind Variable Wind from SSW

Today
High -- | Low -- °F
--% Chance of Precip.
Yesterday
High -- | Low -- °F
Precip. -- in
6:24 AM 7:55 PM
Waxing Crescent, 27% visible
Pressure 29.93 in
Visibility 10.0 miles
Clouds Few 4000 ft
Scattered Clouds 8000 ft
Scattered Clouds 20000 ft
Dew Point 52 °F
Humidity 75%
Rainfall 0.04 in
Snow Depth Not available.
UV 0 out of 12
Pollen .60 out of 12
PM2.5 Good
Flu Activity Not available.
METAR KNUW 310256Z 20004KT 10SM FEW040 SCT080 SCT200 16/11 A2991 RMK AO2 SLP133 T01560111 53004 $

More Conditions Fewer Conditions

Pressure 29.93 in
Visibility 10.0 miles
Clouds Few 4000 ft
Scattered Clouds 8000 ft
Scattered Clouds 20000 ft
Dew Point 52 °F
Humidity 75%
Rainfall 0.04 in
Snow Depth Not available.
UV 0 out of 12
Pollen .60 out of 12
PM2.5 Good
Flu Activity Not available.
METAR KNUW 310256Z 20004KT 10SM FEW040 SCT080 SCT200 16/11 A2991 RMK AO2 SLP133 T01560111 53004 $

More Conditions Fewer Conditions

10-Day Weather Forecast

Almanac

Astronomy

Aug. 30, 2014 Rise Set
Actual Time 6:24 AM PDT 7:55 PM PDT
Civil Twilight 5:51 AM PDT 8:28 PM PDT
Nautical Twilight 5:11 AM PDT 9:08 PM PDT
Astronomical Twilight 4:27 AM PDT 9:51 PM PDT
Moon 11:44 AM PDT (8/30) 10:05 PM PDT (8/30)
Length of Visible Light 14h 37m
Length of Day
13h 31m
Tomorrow will be 3m 27s shorter.
Waxing Crescent, 27% of the Moon is Illuminated
Today
Waxing Crescent
Sep 2
First Quarter
Sep 8
Full
Sep 15
Last Quarter
Sep 24
New

Today's Extremes

State Highs State Lows

Community

WunderPhotos

Upload Photos

1,748,773 photos uploaded!

Nearby

Air Quality

  Air Quality AQ Index Pollutant
Yesterday Good
OZONE
Yesterday Good
PM2.5
Current Good
PM2.5
Saturday Good
OZONE
Saturday Good
PM2.5
Sunday Good
OZONE
Sunday Good
PM2.5
Monday Good
OZONE
Monday Good
PM2.5
Tuesday Good
OZONE
Tuesday Good
PM2.5

Snow Depth

Station Depth Elevation
Beaver Pass 0 in 3620 ft
Dungeness 0 in 4100 ft
Waterhole 1 in 5000 ft
Mount Crag 0 in 4050 ft
Alpine Meadows 0 in 3500 ft

Earthquake Activity

City Distance Mag. Time & Date
No recent earthquake activity has been reported nearby.
Minimum magnitude displayed is 2.5.

Coastal Water Temperatures

Place Temperature
Port Townsend, WA 53.1 °F
Friday Harbor, WA 53.1 °F
Port Angeles, WA 52.0 °F

Nearby Weather Stations